Eddy, New York
Current Conditions -  °F | °C
As of 2:53 AM on Saturday 20 Dec 2014 (Local Time) from KMSS Reporting Station
Clear Clear  
Wind Chill:   Ceiling: Unl
Heat Index:   Visibility: 9mi
Dew Point:   Wind: 0mph
Humidity: 83%   Direction: NA
Pressure: 30.29"   Gusts: NA
Location:  44.5792°N, 75.1592°W
Report Text: KMSS 200753Z AUTO 00000KT 9SM CLR M13/M16 A3029 RMK AO2 SLP266 I1000 T11331156
Loading
Personal Weather Stations






























Interactive Weather Map New forecast layout! Learn more

10-Day Weather Forecast

Advertisements
Track Severe Weather on mobile